sensor_id;sensor_type;location;lat;lon;timestamp;temperature;humidity
43858;DHT22;29507;51.284;5.758;2023-03-14T00:00:37;11.90;99.90
43858;DHT22;29507;51.284;5.758;2023-03-14T00:03:03;11.90;99.90
43858;DHT22;29507;51.284;5.758;2023-03-14T00:05:28;11.80;99.90
43858;DHT22;29507;51.284;5.758;2023-03-14T00:07:54;11.80;99.90
43858;DHT22;29507;51.284;5.758;2023-03-14T00:10:20;11.80;99.90
43858;DHT22;29507;51.284;5.758;2023-03-14T00:12:46;11.70;99.90
43858;DHT22;29507;51.284;5.758;2023-03-14T00:15:13;11.60;99.90
43858;DHT22;29507;51.284;5.758;2023-03-14T00:17:39;11.60;99.90
43858;DHT22;29507;51.284;5.758;2023-03-14T00:20:06;11.50;99.90
43858;DHT22;29507;51.284;5.758;2023-03-14T00:22:38;11.50;99.90
43858;DHT22;29507;51.284;5.758;2023-03-14T00:25:05;11.50;99.90
43858;DHT22;29507;51.284;5.758;2023-03-14T00:27:32;11.50;99.90
43858;DHT22;29507;51.284;5.758;2023-03-14T00:29:58;11.50;99.90
43858;DHT22;29507;51.284;5.758;2023-03-14T00:32:23;11.40;99.90
43858;DHT22;29507;51.284;5.758;2023-03-14T00:34:49;11.30;99.90
43858;DHT22;29507;51.284;5.758;2023-03-14T00:37:15;11.30;99.90
43858;DHT22;29507;51.284;5.758;2023-03-14T00:39:40;11.20;99.90
43858;DHT22;29507;51.284;5.758;2023-03-14T00:42:06;11.10;99.90
43858;DHT22;29507;51.284;5.758;2023-03-14T00:44:32;11.00;99.90
43858;DHT22;29507;51.284;5.758;2023-03-14T00:46:58;11.00;99.90
43858;DHT22;29507;51.284;5.758;2023-03-14T00:49:24;11.00;99.90
43858;DHT22;29507;51.284;5.758;2023-03-14T00:51:49;10.90;99.90
43858;DHT22;29507;51.284;5.758;2023-03-14T00:54:17;10.90;99.90
43858;DHT22;29507;51.284;5.758;2023-03-14T00:56:42;10.90;99.90
43858;DHT22;29507;51.284;5.758;2023-03-14T00:59:08;10.80;99.90
43858;DHT22;29507;51.284;5.758;2023-03-14T01:01:34;10.70;99.90
43858;DHT22;29507;51.284;5.758;2023-03-14T01:03:59;10.70;99.90
43858;DHT22;29507;51.284;5.758;2023-03-14T01:06:27;10.60;99.90
43858;DHT22;29507;51.284;5.758;2023-03-14T01:08:54;10.60;99.90
43858;DHT22;29507;51.284;5.758;2023-03-14T01:11:25;10.50;99.90
43858;DHT22;29507;51.284;5.758;2023-03-14T01:13:51;10.50;99.90
43858;DHT22;29507;51.284;5.758;2023-03-14T01:16:18;10.50;99.90
43858;DHT22;29507;51.284;5.758;2023-03-14T01:18:45;10.50;99.90
43858;DHT22;29507;51.284;5.758;2023-03-14T01:21:17;10.50;99.90
43858;DHT22;29507;51.284;5.758;2023-03-14T01:23:43;10.40;99.90
43858;DHT22;29507;51.284;5.758;2023-03-14T01:26:11;10.40;99.90
43858;DHT22;29507;51.284;5.758;2023-03-14T01:28:38;10.40;99.90
43858;DHT22;29507;51.284;5.758;2023-03-14T01:31:06;10.40;99.90
43858;DHT22;29507;51.284;5.758;2023-03-14T01:33:32;10.40;99.90
43858;DHT22;29507;51.284;5.758;2023-03-14T01:35:59;10.40;99.90
43858;DHT22;29507;51.284;5.758;2023-03-14T01:38:24;10.40;99.90
43858;DHT22;29507;51.284;5.758;2023-03-14T01:40:50;10.30;99.90
43858;DHT22;29507;51.284;5.758;2023-03-14T01:43:18;10.30;99.90
43858;DHT22;29507;51.284;5.758;2023-03-14T01:48:49;10.10;99.90
43858;DHT22;29507;51.284;5.758;2023-03-14T01:56:59;9.90;99.90
43858;DHT22;29507;51.284;5.758;2023-03-14T01:59:29;9.80;99.90
43858;DHT22;29507;51.284;5.758;2023-03-14T02:01:57;9.80;99.90
43858;DHT22;29507;51.284;5.758;2023-03-14T02:04:23;9.70;99.90
43858;DHT22;29507;51.284;5.758;2023-03-14T02:09:36;9.50;99.90
43858;DHT22;29507;51.284;5.758;2023-03-14T02:12:03;9.50;99.90
43858;DHT22;29507;51.284;5.758;2023-03-14T02:14:32;9.50;99.90
43858;DHT22;29507;51.284;5.758;2023-03-14T02:16:59;9.60;99.90
43858;DHT22;29507;51.284;5.758;2023-03-14T02:22:14;9.60;99.90
43858;DHT22;29507;51.284;5.758;2023-03-14T02:27:26;9.60;99.90
43858;DHT22;29507;51.284;5.758;2023-03-14T02:29:58;9.70;99.90
43858;DHT22;29507;51.284;5.758;2023-03-14T02:32:27;9.90;99.90
43858;DHT22;29507;51.284;5.758;2023-03-14T02:34:56;9.90;99.90
43858;DHT22;29507;51.284;5.758;2023-03-14T02:37:25;10.00;99.90
43858;DHT22;29507;51.284;5.758;2023-03-14T02:39:54;10.00;99.90
43858;DHT22;29507;51.284;5.758;2023-03-14T02:42:20;10.10;99.90
43858;DHT22;29507;51.284;5.758;2023-03-14T02:44:55;10.10;99.90
43858;DHT22;29507;51.284;5.758;2023-03-14T02:47:29;10.10;99.90
43858;DHT22;29507;51.284;5.758;2023-03-14T02:50:03;10.10;99.90
43858;DHT22;29507;51.284;5.758;2023-03-14T02:52:29;10.10;99.90
43858;DHT22;29507;51.284;5.758;2023-03-14T02:54:55;10.10;99.90
43858;DHT22;29507;51.284;5.758;2023-03-14T02:57:21;10.10;99.90
43858;DHT22;29507;51.284;5.758;2023-03-14T02:59:46;10.10;99.90
43858;DHT22;29507;51.284;5.758;2023-03-14T03:02:12;10.10;99.90
43858;DHT22;29507;51.284;5.758;2023-03-14T03:04:38;10.10;99.90
43858;DHT22;29507;51.284;5.758;2023-03-14T03:07:03;10.10;99.90
43858;DHT22;29507;51.284;5.758;2023-03-14T03:09:29;10.10;99.90
43858;DHT22;29507;51.284;5.758;2023-03-14T03:11:54;10.10;99.90
43858;DHT22;29507;51.284;5.758;2023-03-14T03:14:20;10.10;99.90
43858;DHT22;29507;51.284;5.758;2023-03-14T03:16:46;10.10;99.90
43858;DHT22;29507;51.284;5.758;2023-03-14T03:19:11;10.10;99.90
43858;DHT22;29507;51.284;5.758;2023-03-14T03:21:39;10.10;99.90
43858;DHT22;29507;51.284;5.758;2023-03-14T03:24:04;10.00;99.90
43858;DHT22;29507;51.284;5.758;2023-03-14T03:26:30;10.10;99.90
43858;DHT22;29507;51.284;5.758;2023-03-14T03:28:55;10.10;99.90
43858;DHT22;29507;51.284;5.758;2023-03-14T03:31:21;10.10;99.90
43858;DHT22;29507;51.284;5.758;2023-03-14T03:33:47;10.00;99.90
43858;DHT22;29507;51.284;5.758;2023-03-14T03:36:13;10.10;99.90
43858;DHT22;29507;51.284;5.758;2023-03-14T03:38:38;10.10;99.90
43858;DHT22;29507;51.284;5.758;2023-03-14T03:41:08;10.10;99.90
43858;DHT22;29507;51.284;5.758;2023-03-14T03:43:33;10.10;99.90
43858;DHT22;29507;51.284;5.758;2023-03-14T03:46:03;9.90;99.90
43858;DHT22;29507;51.284;5.758;2023-03-14T03:48:29;9.90;99.90
43858;DHT22;29507;51.284;5.758;2023-03-14T03:50:54;9.90;99.90
43858;DHT22;29507;51.284;5.758;2023-03-14T03:53:20;9.60;99.90
43858;DHT22;29507;51.284;5.758;2023-03-14T03:55:46;9.50;99.90
43858;DHT22;29507;51.284;5.758;2023-03-14T03:58:11;9.40;99.90
43858;DHT22;29507;51.284;5.758;2023-03-14T04:00:37;9.20;99.90
43858;DHT22;29507;51.284;5.758;2023-03-14T04:03:04;9.10;99.90
43858;DHT22;29507;51.284;5.758;2023-03-14T04:05:30;9.00;99.90
43858;DHT22;29507;51.284;5.758;2023-03-14T04:07:55;8.90;99.90
43858;DHT22;29507;51.284;5.758;2023-03-14T04:10:21;8.80;99.90
43858;DHT22;29507;51.284;5.758;2023-03-14T04:12:47;8.60;99.90
43858;DHT22;29507;51.284;5.758;2023-03-14T04:15:12;8.50;99.90
43858;DHT22;29507;51.284;5.758;2023-03-14T04:17:38;8.40;99.90
43858;DHT22;29507;51.284;5.758;2023-03-14T04:20:04;8.30;99.90
43858;DHT22;29507;51.284;5.758;2023-03-14T04:22:30;8.20;99.90
43858;DHT22;29507;51.284;5.758;2023-03-14T04:24:55;8.20;99.90
43858;DHT22;29507;51.284;5.758;2023-03-14T04:27:21;8.10;99.90
43858;DHT22;29507;51.284;5.758;2023-03-14T04:29:46;8.10;99.90
43858;DHT22;29507;51.284;5.758;2023-03-14T04:32:12;8.20;99.90
43858;DHT22;29507;51.284;5.758;2023-03-14T04:34:37;8.10;99.90
43858;DHT22;29507;51.284;5.758;2023-03-14T04:37:03;8.10;99.90
43858;DHT22;29507;51.284;5.758;2023-03-14T04:39:29;8.10;99.90
43858;DHT22;29507;51.284;5.758;2023-03-14T04:41:54;8.10;99.90
43858;DHT22;29507;51.284;5.758;2023-03-14T04:44:20;8.10;99.90
43858;DHT22;29507;51.284;5.758;2023-03-14T04:46:45;8.10;99.90
43858;DHT22;29507;51.284;5.758;2023-03-14T04:49:11;8.10;99.90
43858;DHT22;29507;51.284;5.758;2023-03-14T04:51:37;8.20;99.90
43858;DHT22;29507;51.284;5.758;2023-03-14T04:54:02;8.10;99.90
43858;DHT22;29507;51.284;5.758;2023-03-14T04:56:28;8.20;99.90
43858;DHT22;29507;51.284;5.758;2023-03-14T04:58:54;8.20;99.90
43858;DHT22;29507;51.284;5.758;2023-03-14T05:01:19;8.30;99.90
43858;DHT22;29507;51.284;5.758;2023-03-14T05:03:45;8.30;99.90
43858;DHT22;29507;51.284;5.758;2023-03-14T05:06:10;8.30;99.90
43858;DHT22;29507;51.284;5.758;2023-03-14T05:08:36;8.30;99.90
43858;DHT22;29507;51.284;5.758;2023-03-14T05:11:02;8.30;99.90
43858;DHT22;29507;51.284;5.758;2023-03-14T05:13:28;8.30;99.90
43858;DHT22;29507;51.284;5.758;2023-03-14T05:16:01;8.30;99.90
43858;DHT22;29507;51.284;5.758;2023-03-14T05:18:27;8.40;99.90
43858;DHT22;29507;51.284;5.758;2023-03-14T05:20:53;8.40;99.90
43858;DHT22;29507;51.284;5.758;2023-03-14T05:23:19;8.50;99.90
43858;DHT22;29507;51.284;5.758;2023-03-14T05:25:44;8.50;99.90
43858;DHT22;29507;51.284;5.758;2023-03-14T05:28:10;8.50;99.90
43858;DHT22;29507;51.284;5.758;2023-03-14T05:30:36;8.50;99.90
43858;DHT22;29507;51.284;5.758;2023-03-14T05:33:01;8.60;99.90
43858;DHT22;29507;51.284;5.758;2023-03-14T05:35:27;8.60;99.90
43858;DHT22;29507;51.284;5.758;2023-03-14T05:37:52;8.70;99.90
43858;DHT22;29507;51.284;5.758;2023-03-14T05:40:18;8.70;99.90
43858;DHT22;29507;51.284;5.758;2023-03-14T05:42:44;8.70;99.90
43858;DHT22;29507;51.284;5.758;2023-03-14T05:45:10;8.70;99.90
43858;DHT22;29507;51.284;5.758;2023-03-14T05:47:35;8.70;99.90
43858;DHT22;29507;51.284;5.758;2023-03-14T05:50:01;8.70;99.90
43858;DHT22;29507;51.284;5.758;2023-03-14T05:52:26;8.70;99.90
43858;DHT22;29507;51.284;5.758;2023-03-14T05:54:52;8.70;99.90
43858;DHT22;29507;51.284;5.758;2023-03-14T05:57:18;8.80;99.90
43858;DHT22;29507;51.284;5.758;2023-03-14T05:59:43;8.80;99.90
43858;DHT22;29507;51.284;5.758;2023-03-14T06:02:09;8.80;99.90
43858;DHT22;29507;51.284;5.758;2023-03-14T06:04:34;8.80;99.90
43858;DHT22;29507;51.284;5.758;2023-03-14T06:07:00;8.80;99.90
43858;DHT22;29507;51.284;5.758;2023-03-14T06:09:26;8.90;99.90
43858;DHT22;29507;51.284;5.758;2023-03-14T06:11:51;8.80;99.90
43858;DHT22;29507;51.284;5.758;2023-03-14T06:14:17;8.90;99.90
43858;DHT22;29507;51.284;5.758;2023-03-14T06:16:43;8.80;99.90
43858;DHT22;29507;51.284;5.758;2023-03-14T06:19:09;8.80;99.90
43858;DHT22;29507;51.284;5.758;2023-03-14T06:21:35;8.80;99.90
43858;DHT22;29507;51.284;5.758;2023-03-14T06:24:01;8.70;99.90
43858;DHT22;29507;51.284;5.758;2023-03-14T06:26:26;8.80;99.90
43858;DHT22;29507;51.284;5.758;2023-03-14T06:28:52;8.80;99.90
43858;DHT22;29507;51.284;5.758;2023-03-14T06:31:19;8.80;99.90
43858;DHT22;29507;51.284;5.758;2023-03-14T06:33:44;8.70;99.90
43858;DHT22;29507;51.284;5.758;2023-03-14T06:36:10;8.80;99.90
43858;DHT22;29507;51.284;5.758;2023-03-14T06:38:35;8.80;99.90
43858;DHT22;29507;51.284;5.758;2023-03-14T06:41:05;8.80;99.90
43858;DHT22;29507;51.284;5.758;2023-03-14T06:43:31;8.80;99.90
43858;DHT22;29507;51.284;5.758;2023-03-14T06:45:57;8.80;99.90
43858;DHT22;29507;51.284;5.758;2023-03-14T06:48:22;8.90;99.90
43858;DHT22;29507;51.284;5.758;2023-03-14T06:50:49;9.00;99.90
43858;DHT22;29507;51.284;5.758;2023-03-14T06:53:14;9.00;99.90
43858;DHT22;29507;51.284;5.758;2023-03-14T06:55:40;9.00;99.90
43858;DHT22;29507;51.284;5.758;2023-03-14T06:58:06;9.00;99.90
43858;DHT22;29507;51.284;5.758;2023-03-14T07:00:33;9.10;99.90
43858;DHT22;29507;51.284;5.758;2023-03-14T07:02:59;9.10;99.90
43858;DHT22;29507;51.284;5.758;2023-03-14T07:05:25;9.30;99.90
43858;DHT22;29507;51.284;5.758;2023-03-14T07:07:51;9.40;99.90
43858;DHT22;29507;51.284;5.758;2023-03-14T07:10:17;9.50;99.90
43858;DHT22;29507;51.284;5.758;2023-03-14T07:12:42;9.50;99.90
43858;DHT22;29507;51.284;5.758;2023-03-14T07:15:09;9.60;99.90
43858;DHT22;29507;51.284;5.758;2023-03-14T07:17:34;9.70;99.90
43858;DHT22;29507;51.284;5.758;2023-03-14T07:20:00;9.80;99.90
43858;DHT22;29507;51.284;5.758;2023-03-14T07:22:26;9.90;99.90
43858;DHT22;29507;51.284;5.758;2023-03-14T07:24:51;10.00;99.90
43858;DHT22;29507;51.284;5.758;2023-03-14T07:27:17;10.10;99.90
43858;DHT22;29507;51.284;5.758;2023-03-14T07:29:43;10.00;99.90
43858;DHT22;29507;51.284;5.758;2023-03-14T07:32:08;9.90;99.90
43858;DHT22;29507;51.284;5.758;2023-03-14T07:34:34;9.90;99.90
43858;DHT22;29507;51.284;5.758;2023-03-14T07:37:00;10.00;99.90
43858;DHT22;29507;51.284;5.758;2023-03-14T07:39:26;10.00;99.90
43858;DHT22;29507;51.284;5.758;2023-03-14T07:41:51;9.90;99.90
43858;DHT22;29507;51.284;5.758;2023-03-14T07:44:17;9.90;99.90
43858;DHT22;29507;51.284;5.758;2023-03-14T07:46:42;9.80;99.90
43858;DHT22;29507;51.284;5.758;2023-03-14T07:49:08;9.70;99.90
43858;DHT22;29507;51.284;5.758;2023-03-14T07:51:34;9.70;99.90
43858;DHT22;29507;51.284;5.758;2023-03-14T07:54:00;9.60;99.90
43858;DHT22;29507;51.284;5.758;2023-03-14T07:56:26;9.60;99.90
43858;DHT22;29507;51.284;5.758;2023-03-14T07:58:51;9.50;99.90
43858;DHT22;29507;51.284;5.758;2023-03-14T08:01:17;9.50;99.90
43858;DHT22;29507;51.284;5.758;2023-03-14T08:03:42;9.50;99.90
43858;DHT22;29507;51.284;5.758;2023-03-14T08:06:08;9.50;99.90
43858;DHT22;29507;51.284;5.758;2023-03-14T08:08:34;9.40;99.90
43858;DHT22;29507;51.284;5.758;2023-03-14T08:11:06;9.30;99.90
43858;DHT22;29507;51.284;5.758;2023-03-14T08:13:34;9.10;99.90
43858;DHT22;29507;51.284;5.758;2023-03-14T08:16:00;8.80;99.90
43858;DHT22;29507;51.284;5.758;2023-03-14T08:18:25;8.50;99.90
43858;DHT22;29507;51.284;5.758;2023-03-14T08:20:51;8.20;99.90
43858;DHT22;29507;51.284;5.758;2023-03-14T08:23:16;8.00;99.90
43858;DHT22;29507;51.284;5.758;2023-03-14T08:25:42;7.90;99.90
43858;DHT22;29507;51.284;5.758;2023-03-14T08:28:08;7.80;99.90
43858;DHT22;29507;51.284;5.758;2023-03-14T08:30:34;7.70;99.90
43858;DHT22;29507;51.284;5.758;2023-03-14T08:33:00;7.50;99.90
43858;DHT22;29507;51.284;5.758;2023-03-14T08:35:26;7.50;99.90
43858;DHT22;29507;51.284;5.758;2023-03-14T08:37:52;7.50;99.90
43858;DHT22;29507;51.284;5.758;2023-03-14T08:40:18;7.50;99.90
43858;DHT22;29507;51.284;5.758;2023-03-14T08:42:44;7.50;99.90
43858;DHT22;29507;51.284;5.758;2023-03-14T08:45:13;7.50;99.90
43858;DHT22;29507;51.284;5.758;2023-03-14T08:47:38;7.40;99.90
43858;DHT22;29507;51.284;5.758;2023-03-14T08:50:05;7.40;99.90
43858;DHT22;29507;51.284;5.758;2023-03-14T08:52:31;7.40;99.90
43858;DHT22;29507;51.284;5.758;2023-03-14T08:54:57;7.30;99.90
43858;DHT22;29507;51.284;5.758;2023-03-14T08:57:25;7.20;99.90
43858;DHT22;29507;51.284;5.758;2023-03-14T08:59:56;7.20;99.90
43858;DHT22;29507;51.284;5.758;2023-03-14T09:02:23;7.10;99.90
43858;DHT22;29507;51.284;5.758;2023-03-14T09:04:50;7.10;99.90
43858;DHT22;29507;51.284;5.758;2023-03-14T09:07:16;7.10;99.90
43858;DHT22;29507;51.284;5.758;2023-03-14T09:09:42;7.00;99.90
43858;DHT22;29507;51.284;5.758;2023-03-14T09:12:10;7.00;99.90
43858;DHT22;29507;51.284;5.758;2023-03-14T09:14:36;6.90;99.90
43858;DHT22;29507;51.284;5.758;2023-03-14T09:17:03;6.90;99.90
43858;DHT22;29507;51.284;5.758;2023-03-14T09:19:29;7.00;99.90
43858;DHT22;29507;51.284;5.758;2023-03-14T09:21:55;7.00;99.90
43858;DHT22;29507;51.284;5.758;2023-03-14T09:24:20;7.20;99.90
43858;DHT22;29507;51.284;5.758;2023-03-14T09:26:46;7.40;99.90
43858;DHT22;29507;51.284;5.758;2023-03-14T09:29:12;7.60;99.90
43858;DHT22;29507;51.284;5.758;2023-03-14T09:31:38;7.60;99.90
43858;DHT22;29507;51.284;5.758;2023-03-14T09:34:03;7.60;99.90
43858;DHT22;29507;51.284;5.758;2023-03-14T09:36:29;7.60;99.90
43858;DHT22;29507;51.284;5.758;2023-03-14T09:38:55;7.40;99.90
43858;DHT22;29507;51.284;5.758;2023-03-14T09:41:28;7.30;99.90
43858;DHT22;29507;51.284;5.758;2023-03-14T09:44:14;7.30;99.90
43858;DHT22;29507;51.284;5.758;2023-03-14T09:46:44;7.30;99.90
43858;DHT22;29507;51.284;5.758;2023-03-14T09:49:31;7.30;99.90
43858;DHT22;29507;51.284;5.758;2023-03-14T09:51:59;7.20;99.90
43858;DHT22;29507;51.284;5.758;2023-03-14T09:54:38;7.20;99.90
43858;DHT22;29507;51.284;5.758;2023-03-14T09:57:08;7.30;99.90
43858;DHT22;29507;51.284;5.758;2023-03-14T09:59:36;7.20;99.90
43858;DHT22;29507;51.284;5.758;2023-03-14T10:02:23;7.20;99.90
43858;DHT22;29507;51.284;5.758;2023-03-14T10:04:51;7.20;99.90
43858;DHT22;29507;51.284;5.758;2023-03-14T10:07:28;7.30;99.90
43858;DHT22;29507;51.284;5.758;2023-03-14T10:09:54;7.50;99.90
43858;DHT22;29507;51.284;5.758;2023-03-14T10:12:21;7.50;99.90
43858;DHT22;29507;51.284;5.758;2023-03-14T10:14:55;7.40;99.90
43858;DHT22;29507;51.284;5.758;2023-03-14T10:17:21;7.30;99.90
43858;DHT22;29507;51.284;5.758;2023-03-14T10:19:58;7.40;99.90
43858;DHT22;29507;51.284;5.758;2023-03-14T10:22:29;7.30;99.90
43858;DHT22;29507;51.284;5.758;2023-03-14T10:24:57;7.20;99.90
43858;DHT22;29507;51.284;5.758;2023-03-14T10:27:29;7.30;99.90
43858;DHT22;29507;51.284;5.758;2023-03-14T10:30:07;7.10;99.90
43858;DHT22;29507;51.284;5.758;2023-03-14T10:32:39;6.90;99.90
43858;DHT22;29507;51.284;5.758;2023-03-14T10:37:57;6.50;99.90
43858;DHT22;29507;51.284;5.758;2023-03-14T10:40:32;6.50;99.90
43858;DHT22;29507;51.284;5.758;2023-03-14T10:42:59;6.50;99.90
43858;DHT22;29507;51.284;5.758;2023-03-14T10:45:38;6.60;99.90
43858;DHT22;29507;51.284;5.758;2023-03-14T10:48:24;6.90;99.90
43858;DHT22;29507;51.284;5.758;2023-03-14T10:53:20;7.50;99.90
43858;DHT22;29507;51.284;5.758;2023-03-14T10:55:46;7.70;99.90
43858;DHT22;29507;51.284;5.758;2023-03-14T10:58:28;7.90;99.90
43858;DHT22;29507;51.284;5.758;2023-03-14T11:03:31;7.90;99.90
43858;DHT22;29507;51.284;5.758;2023-03-14T11:06:15;8.50;99.90
43858;DHT22;29507;51.284;5.758;2023-03-14T11:11:32;8.10;99.90
43858;DHT22;29507;51.284;5.758;2023-03-14T11:14:14;8.00;99.90
43858;DHT22;29507;51.284;5.758;2023-03-14T11:16:54;8.10;99.90
43858;DHT22;29507;51.284;5.758;2023-03-14T11:22:24;8.60;99.90
43858;DHT22;29507;51.284;5.758;2023-03-14T11:25:01;8.50;99.90
43858;DHT22;29507;51.284;5.758;2023-03-14T11:27:44;8.30;99.90
43858;DHT22;29507;51.284;5.758;2023-03-14T11:30:18;8.10;99.90
43858;DHT22;29507;51.284;5.758;2023-03-14T11:35:36;8.00;99.90
43858;DHT22;29507;51.284;5.758;2023-03-14T11:40:37;8.70;99.90
43858;DHT22;29507;51.284;5.758;2023-03-14T11:43:11;8.60;99.90
43858;DHT22;29507;51.284;5.758;2023-03-14T11:45:41;8.50;99.90
43858;DHT22;29507;51.284;5.758;2023-03-14T11:48:25;8.80;99.90
43858;DHT22;29507;51.284;5.758;2023-03-14T11:50:56;9.10;99.90
43858;DHT22;29507;51.284;5.758;2023-03-14T11:53:28;9.20;99.90
43858;DHT22;29507;51.284;5.758;2023-03-14T11:55:55;9.10;99.90
43858;DHT22;29507;51.284;5.758;2023-03-14T11:58:25;9.00;99.90
43858;DHT22;29507;51.284;5.758;2023-03-14T12:00:53;8.80;99.90
43858;DHT22;29507;51.284;5.758;2023-03-14T12:03:23;8.90;99.90
43858;DHT22;29507;51.284;5.758;2023-03-14T12:06:02;9.10;99.90
43858;DHT22;29507;51.284;5.758;2023-03-14T12:11:04;9.20;99.90
43858;DHT22;29507;51.284;5.758;2023-03-14T12:13:36;9.00;99.90
43858;DHT22;29507;51.284;5.758;2023-03-14T12:16:47;8.60;99.90
43858;DHT22;29507;51.284;5.758;2023-03-14T12:18:54;7.80;99.90
43858;DHT22;29507;51.284;5.758;2023-03-14T12:21:20;6.90;99.90
43858;DHT22;29507;51.284;5.758;2023-03-14T12:23:52;6.40;99.90
43858;DHT22;29507;51.284;5.758;2023-03-14T12:26:21;6.00;99.90
43858;DHT22;29507;51.284;5.758;2023-03-14T12:28:52;5.80;99.90
43858;DHT22;29507;51.284;5.758;2023-03-14T12:31:47;5.50;99.90
43858;DHT22;29507;51.284;5.758;2023-03-14T12:39:43;5.20;99.90
43858;DHT22;29507;51.284;5.758;2023-03-14T12:45:33;5.80;99.90
43858;DHT22;29507;51.284;5.758;2023-03-14T12:48:10;6.20;99.90
43858;DHT22;29507;51.284;5.758;2023-03-14T12:50:43;6.40;99.90
43858;DHT22;29507;51.284;5.758;2023-03-14T13:01:37;6.70;99.90
43858;DHT22;29507;51.284;5.758;2023-03-14T13:04:12;7.60;99.90
43858;DHT22;29507;51.284;5.758;2023-03-14T13:06:51;8.10;99.90
43858;DHT22;29507;51.284;5.758;2023-03-14T13:12:14;11.10;99.90
43858;DHT22;29507;51.284;5.758;2023-03-14T13:14:45;11.40;99.90
43858;DHT22;29507;51.284;5.758;2023-03-14T13:17:13;11.40;99.90
43858;DHT22;29507;51.284;5.758;2023-03-14T13:19:39;12.20;99.90
43858;DHT22;29507;51.284;5.758;2023-03-14T13:22:12;12.50;99.90
43858;DHT22;29507;51.284;5.758;2023-03-14T13:24:40;12.60;99.90
43858;DHT22;29507;51.284;5.758;2023-03-14T13:27:19;13.00;99.90
43858;DHT22;29507;51.284;5.758;2023-03-14T13:29:48;13.90;99.90
43858;DHT22;29507;51.284;5.758;2023-03-14T13:32:21;13.50;99.90
43858;DHT22;29507;51.284;5.758;2023-03-14T13:34:47;13.60;99.90
43858;DHT22;29507;51.284;5.758;2023-03-14T13:37:22;12.50;99.90
43858;DHT22;29507;51.284;5.758;2023-03-14T13:39:50;11.30;99.90
43858;DHT22;29507;51.284;5.758;2023-03-14T13:42:16;11.30;99.90
43858;DHT22;29507;51.284;5.758;2023-03-14T13:44:42;11.20;99.90
43858;DHT22;29507;51.284;5.758;2023-03-14T13:47:18;11.10;99.90
43858;DHT22;29507;51.284;5.758;2023-03-14T13:49:46;10.20;99.90
43858;DHT22;29507;51.284;5.758;2023-03-14T13:52:31;9.80;99.90
43858;DHT22;29507;51.284;5.758;2023-03-14T13:54:59;9.20;99.90
43858;DHT22;29507;51.284;5.758;2023-03-14T13:57:24;8.80;99.90
43858;DHT22;29507;51.284;5.758;2023-03-14T14:00:05;8.80;99.90
43858;DHT22;29507;51.284;5.758;2023-03-14T14:02:35;8.80;99.90
43858;DHT22;29507;51.284;5.758;2023-03-14T14:05:02;8.90;99.90
43858;DHT22;29507;51.284;5.758;2023-03-14T14:07:28;8.90;99.90
43858;DHT22;29507;51.284;5.758;2023-03-14T14:09:54;9.20;99.90
43858;DHT22;29507;51.284;5.758;2023-03-14T14:15:13;9.90;99.90
43858;DHT22;29507;51.284;5.758;2023-03-14T14:17:53;10.10;99.90
43858;DHT22;29507;51.284;5.758;2023-03-14T14:20:28;10.50;99.90
43858;DHT22;29507;51.284;5.758;2023-03-14T14:23:02;11.50;99.90
43858;DHT22;29507;51.284;5.758;2023-03-14T14:25:30;12.10;96.80
43858;DHT22;29507;51.284;5.758;2023-03-14T14:27:56;13.40;94.10
43858;DHT22;29507;51.284;5.758;2023-03-14T14:32:49;14.50;92.20
43858;DHT22;29507;51.284;5.758;2023-03-14T14:35:23;14.30;85.80
43858;DHT22;29507;51.284;5.758;2023-03-14T14:37:49;14.00;81.20
43858;DHT22;29507;51.284;5.758;2023-03-14T14:40:26;13.00;77.00
43858;DHT22;29507;51.284;5.758;2023-03-14T14:42:53;12.00;78.90
43858;DHT22;29507;51.284;5.758;2023-03-14T14:45:22;11.20;77.30
43858;DHT22;29507;51.284;5.758;2023-03-14T14:48:11;10.70;79.50
43858;DHT22;29507;51.284;5.758;2023-03-14T14:55:51;9.50;86.00
43858;DHT22;29507;51.284;5.758;2023-03-14T14:58:28;9.40;86.40
43858;DHT22;29507;51.284;5.758;2023-03-14T15:01:04;9.30;88.50
43858;DHT22;29507;51.284;5.758;2023-03-14T15:03:32;9.20;86.30
43858;DHT22;29507;51.284;5.758;2023-03-14T15:05:59;9.10;87.60
43858;DHT22;29507;51.284;5.758;2023-03-14T15:08:25;8.90;87.30
43858;DHT22;29507;51.284;5.758;2023-03-14T15:10:51;8.80;89.10
43858;DHT22;29507;51.284;5.758;2023-03-14T15:13:17;8.80;90.20
43858;DHT22;29507;51.284;5.758;2023-03-14T15:15:43;8.60;88.80
43858;DHT22;29507;51.284;5.758;2023-03-14T15:18:17;8.60;86.90
43858;DHT22;29507;51.284;5.758;2023-03-14T15:20:44;8.40;87.20
43858;DHT22;29507;51.284;5.758;2023-03-14T15:23:11;8.40;90.00
43858;DHT22;29507;51.284;5.758;2023-03-14T15:25:37;8.20;89.60
43858;DHT22;29507;51.284;5.758;2023-03-14T15:28:21;8.10;91.20
43858;DHT22;29507;51.284;5.758;2023-03-14T15:30:49;8.00;90.30
43858;DHT22;29507;51.284;5.758;2023-03-14T15:33:15;7.90;90.30
43858;DHT22;29507;51.284;5.758;2023-03-14T15:35:41;7.80;90.10
43858;DHT22;29507;51.284;5.758;2023-03-14T15:38:15;7.80;90.50
43858;DHT22;29507;51.284;5.758;2023-03-14T15:40:42;7.70;91.00
43858;DHT22;29507;51.284;5.758;2023-03-14T15:43:08;7.50;90.80
43858;DHT22;29507;51.284;5.758;2023-03-14T15:45:34;7.40;90.60
43858;DHT22;29507;51.284;5.758;2023-03-14T15:48:00;7.30;90.70
43858;DHT22;29507;51.284;5.758;2023-03-14T15:50:26;7.20;90.50
43858;DHT22;29507;51.284;5.758;2023-03-14T15:52:52;7.20;89.00
43858;DHT22;29507;51.284;5.758;2023-03-14T15:55:18;7.20;90.30
43858;DHT22;29507;51.284;5.758;2023-03-14T15:57:44;7.10;90.50
43858;DHT22;29507;51.284;5.758;2023-03-14T16:00:13;7.10;90.50
43858;DHT22;29507;51.284;5.758;2023-03-14T16:02:40;7.00;91.60
43858;DHT22;29507;51.284;5.758;2023-03-14T16:05:08;7.00;91.20
43858;DHT22;29507;51.284;5.758;2023-03-14T16:07:34;7.00;91.30
43858;DHT22;29507;51.284;5.758;2023-03-14T16:10:00;6.90;91.30
43858;DHT22;29507;51.284;5.758;2023-03-14T16:12:26;6.90;91.50
43858;DHT22;29507;51.284;5.758;2023-03-14T16:14:51;6.90;90.80
43858;DHT22;29507;51.284;5.758;2023-03-14T16:17:17;6.90;90.90
43858;DHT22;29507;51.284;5.758;2023-03-14T16:19:42;6.90;91.20
43858;DHT22;29507;51.284;5.758;2023-03-14T16:22:08;6.80;92.10
43858;DHT22;29507;51.284;5.758;2023-03-14T16:24:34;6.70;91.10
43858;DHT22;29507;51.284;5.758;2023-03-14T16:26:59;6.80;91.60
43858;DHT22;29507;51.284;5.758;2023-03-14T16:29:25;6.60;91.10
43858;DHT22;29507;51.284;5.758;2023-03-14T16:31:51;6.50;90.60
43858;DHT22;29507;51.284;5.758;2023-03-14T16:34:17;6.40;90.60
43858;DHT22;29507;51.284;5.758;2023-03-14T16:36:42;6.30;90.50
43858;DHT22;29507;51.284;5.758;2023-03-14T16:39:08;6.20;90.90
43858;DHT22;29507;51.284;5.758;2023-03-14T16:41:33;6.20;91.00
43858;DHT22;29507;51.284;5.758;2023-03-14T16:44:00;6.20;91.30
43858;DHT22;29507;51.284;5.758;2023-03-14T16:46:26;6.00;91.70
43858;DHT22;29507;51.284;5.758;2023-03-14T16:48:53;5.90;91.70
43858;DHT22;29507;51.284;5.758;2023-03-14T16:51:19;5.90;91.70
43858;DHT22;29507;51.284;5.758;2023-03-14T16:53:45;5.80;91.60
43858;DHT22;29507;51.284;5.758;2023-03-14T16:56:11;5.70;91.90